Time;durP1;ratioP1;P1;durP2;ratioP2;P2;SDS_P1;SDS_P2;PMS_P1;PMS_P2;Temp;Humidity;BMP_temperature;BMP_pressure;BME280_temperature;BME280_humidity;BME280_pressure;Samples;Min_cycle;Max_cycle;Signal;HPM_P1;HPM_P2
2022/05/05 00:02:21;;;;;;;11.48;6.50;;;;;;;8.03;100.00;95629.31;5070381;28;20048;-76
2022/05/05 00:04:47;;;;;;;15.15;7.28;;;;;;;7.91;100.00;95626.84;5070864;28;20482;-76
2022/05/05 00:07:12;;;;;;;13.45;7.45;;;;;;;7.90;100.00;95627.09;5058427;28;20095;-76
2022/05/05 00:09:37;;;;;;;14.75;7.60;;;;;;;7.91;100.00;95620.81;5070621;28;20028;-76
2022/05/05 00:14:48;;;;;;;12.70;6.75;;;;;;;7.91;100.00;95618.19;5055898;28;20063;-75
2022/05/05 00:17:13;;;;;;;15.23;6.80;;;;;;;7.89;100.00;95623.69;5069031;28;20063;-75
2022/05/05 00:19:43;;;;;;;11.70;6.78;;;;;;;7.82;100.00;95617.09;5070642;28;20125;-75
2022/05/05 00:22:10;;;;;;;13.13;6.78;;;;;;;7.86;100.00;95623.38;5070409;28;20426;-75
2022/05/05 00:24:38;;;;;;;13.20;7.15;;;;;;;7.86;100.00;95626.00;5069882;28;20036;-75
2022/05/05 00:27:05;;;;;;;12.48;7.07;;;;;;;7.84;100.00;95630.72;5059554;28;20093;-75
2022/05/05 00:29:30;;;;;;;17.77;6.65;;;;;;;7.85;100.00;95627.06;5068500;28;20039;-75
2022/05/05 00:31:56;;;;;;;13.77;7.13;;;;;;;7.91;100.00;95631.31;5070148;28;20120;-75
2022/05/05 00:34:22;;;;;;;13.75;7.15;;;;;;;7.87;100.00;95625.75;5070051;28;20044;-76
2022/05/05 00:36:47;;;;;;;12.70;7.20;;;;;;;7.91;100.00;95620.81;5066723;28;20040;-75
2022/05/05 00:39:13;;;;;;;12.35;7.18;;;;;;;7.89;100.00;95617.66;5069834;28;20106;-75
2022/05/05 00:41:43;;;;;;;13.10;7.25;;;;;;;7.86;100.00;95623.38;5069934;28;20098;-76
2022/05/05 00:44:09;;;;;;;13.05;7.15;;;;;;;7.82;100.00;95622.31;5069822;28;20082;-75
2022/05/05 00:46:35;;;;;;;11.63;6.72;;;;;;;7.83;100.00;95623.88;5062835;28;20043;-76
2022/05/05 00:49:01;;;;;;;12.32;7.05;;;;;;;7.89;100.00;95625.53;5050087;28;20480;-75
2022/05/05 00:51:27;;;;;;;11.20;6.72;;;;;;;7.86;100.00;95621.56;5058712;28;20509;-76
2022/05/05 00:53:57;;;;;;;13.43;7.07;;;;;;;7.84;100.00;95609.75;5069009;28;20250;-75
2022/05/05 00:56:24;;;;;;;11.90;6.97;;;;;;;7.71;100.00;95606.50;5061845;28;20040;-76
2022/05/05 00:58:50;;;;;;;17.25;7.18;;;;;;;7.77;100.00;95610.75;5066881;28;20090;-76
2022/05/05 01:01:20;;;;;;;12.60;6.80;;;;;;;7.74;100.00;95621.75;5069341;28;20517;-75
2022/05/05 01:03:47;;;;;;;16.80;7.38;;;;;;;7.67;100.00;95615.91;5068674;28;20032;-75
2022/05/05 01:06:16;;;;;;;14.02;7.38;;;;;;;7.68;100.00;95619.31;5062834;28;20036;-76
2022/05/05 01:08:43;;;;;;;16.10;6.97;;;;;;;7.69;100.00;95613.03;5080383;28;20041;-75
2022/05/05 01:11:09;;;;;;;12.15;7.00;;;;;;;7.67;100.00;95631.63;5057764;28;20040;-75
2022/05/05 01:13:38;;;;;;;14.40;7.20;;;;;;;7.63;100.00;95620.06;5068764;28;20051;-75
2022/05/05 01:16:06;;;;;;;12.27;7.28;;;;;;;7.67;100.00;95621.16;5050436;28;20044;-75
2022/05/05 01:18:32;;;;;;;14.23;7.10;;;;;;;7.65;100.00;95617.97;5069461;28;20155;-75
2022/05/05 01:20:58;;;;;;;10.75;6.53;;;;;;;7.60;100.00;95620.53;5069341;28;20119;-76
2022/05/05 01:23:23;;;;;;;14.00;6.70;;;;;;;7.55;100.00;95613.41;5068610;28;20049;-76
2022/05/05 01:28:43;;;;;;;12.07;6.53;;;;;;;7.56;100.00;95614.22;5067022;28;20055;-76
2022/05/05 01:31:08;;;;;;;;;;;;;;;7.52;100.00;95613.91;5068984;28;20040;-76
2022/05/05 01:33:34;;;;;;;10.63;6.45;;;;;;;7.40;100.00;95606.22;5068868;28;19951;-76
2022/05/05 01:36:00;;;;;;;12.13;6.88;;;;;;;7.37;100.00;95611.94;5065374;28;20044;-75
2022/05/05 01:38:35;;;;;;;11.73;6.97;;;;;;;7.35;100.00;95619.22;5069285;28;20036;-76
2022/05/05 01:41:06;;;;;;;10.82;6.45;;;;;;;7.19;100.00;95617.50;5068777;28;20066;-75
2022/05/05 01:43:32;;;;;;;11.82;6.50;;;;;;;7.35;100.00;95623.69;5067276;28;20064;-76
2022/05/05 01:45:58;;;;;;;15.23;6.90;;;;;;;7.29;100.00;95620.22;5100782;28;20040;-76
2022/05/05 01:48:24;;;;;;;16.33;6.45;;;;;;;7.20;100.00;95621.72;5069277;28;20106;-76
2022/05/05 01:50:49;;;;;;;12.23;6.50;;;;;;;7.10;100.00;95617.91;5068321;28;20044;-76
2022/05/05 01:53:15;;;;;;;10.27;5.85;;;;;;;7.06;100.00;95622.06;5065495;28;20040;-76
2022/05/05 01:55:40;;;;;;;10.68;6.40;;;;;;;7.00;100.00;95617.81;5068642;28;20451;-76
2022/05/05 01:58:06;;;;;;;10.57;6.05;;;;;;;6.96;100.00;95627.16;5064014;28;20048;-75
2022/05/05 02:00:32;;;;;;;10.57;5.80;;;;;;;6.89;100.00;95616.09;5068640;28;20083;-75
2022/05/05 02:02:59;;;;;;;11.98;6.38;;;;;;;6.93;100.00;95627.66;5068681;28;20036;-76
2022/05/05 02:05:25;;;;;;;9.95;5.80;;;;;;;6.88;100.00;95625.78;5068765;28;20048;-75
2022/05/05 02:07:50;;;;;;;11.43;5.63;;;;;;;6.85;100.00;95630.69;5064846;28;20460;-75
2022/05/05 02:10:17;;;;;;;8.95;5.47;;;;;;;6.75;100.00;95621.69;5068479;28;20078;-75
2022/05/05 02:12:45;;;;;;;9.93;6.05;;;;;;;6.73;100.00;95622.97;5067938;28;20543;-75
2022/05/05 02:15:13;;;;;;;11.80;6.43;;;;;;;6.65;100.00;95621.56;5057723;28;20530;-75
2022/05/05 02:17:41;;;;;;;10.90;5.35;;;;;;;6.56;100.00;95623.00;5071421;28;20081;-75
2022/05/05 02:20:08;;;;;;;9.80;5.82;;;;;;;6.54;100.00;95625.06;5072672;28;20048;-75
2022/05/05 02:22:34;;;;;;;12.40;6.47;;;;;;;6.59;100.00;95627.72;5055751;28;20073;-75
2022/05/05 02:25:00;;;;;;;11.73;6.38;;;;;;;6.56;100.00;95628.22;5053950;28;20044;-75
2022/05/05 02:27:26;;;;;;;10.98;5.90;;;;;;;6.47;100.00;95635.69;5069661;28;20043;-75
2022/05/05 02:29:52;;;;;;;10.63;5.85;;;;;;;6.41;100.00;95637.44;5072703;28;20047;-75
2022/05/05 02:32:18;;;;;;;9.90;5.50;;;;;;;6.41;100.00;95637.44;5071612;28;20036;-75
2022/05/05 02:34:45;;;;;;;9.48;5.88;;;;;;;6.38;100.00;95632.69;5072605;28;20049;-75
2022/05/05 02:39:56;;;;;;;9.35;5.43;;;;;;;6.34;100.00;95631.56;5072045;28;20043;-75
2022/05/05 02:42:21;;;;;;;9.20;5.40;;;;;;;6.22;100.00;95633.47;5071121;28;20417;-76
2022/05/05 02:44:47;;;;;;;11.15;5.93;;;;;;;6.22;100.00;95630.84;5072133;28;20040;-75
2022/05/05 02:47:13;;;;;;;9.57;5.60;;;;;;;6.19;100.00;95628.72;5068499;28;20052;-76
2022/05/05 02:49:39;;;;;;;12.57;6.35;;;;;;;6.20;100.00;95625.09;5072318;28;20552;-76
2022/05/05 02:52:06;;;;;;;11.32;5.90;;;;;;;6.19;100.00;95633.94;5071719;28;20600;-75
2022/05/05 02:54:47;;;;;;;10.27;5.60;;;;;;;6.12;100.00;95622.88;5066450;28;20041;-76
2022/05/05 02:57:20;;;;;;;11.95;5.60;;;;;;;6.09;100.00;95623.34;5065123;28;20041;-76
2022/05/05 02:59:47;;;;;;;9.95;5.70;;;;;;;6.08;100.00;95630.41;5061511;28;20123;-76
2022/05/05 03:02:13;;;;;;;10.57;5.60;;;;;;;6.10;100.00;95630.16;5071767;28;20041;-75
2022/05/05 03:04:39;;;;;;;9.95;5.85;;;;;;;6.14;100.00;95626.03;5071257;28;20418;-76
2022/05/05 03:07:05;;;;;;;13.30;5.68;;;;;;;6.09;100.00;95628.56;5065000;28;20037;-76
2022/05/05 03:09:30;;;;;;;14.13;5.75;;;;;;;6.08;100.00;95627.78;5068346;28;20421;-75
2022/05/05 03:11:56;;;;;;;14.15;5.40;;;;;;;6.02;100.00;95633.94;5071634;28;20044;-76
2022/05/05 03:14:21;;;;;;;9.35;5.30;;;;;;;5.96;100.00;95630.44;5071087;28;20047;-76
2022/05/05 03:16:47;;;;;;;11.27;5.72;;;;;;;5.92;100.00;95634.56;5054719;28;20061;-76
2022/05/05 03:19:12;;;;;;;11.20;6.07;;;;;;;5.97;100.00;95626.81;5064681;28;20418;-75
2022/05/05 03:21:38;;;;;;;9.60;5.53;;;;;;;6.00;100.00;95646.47;5071727;28;20044;-75
2022/05/05 03:24:05;;;;;;;11.68;6.07;;;;;;;6.01;100.00;95648.84;5068331;28;20049;-75
2022/05/05 03:26:30;;;;;;;9.63;5.90;;;;;;;6.02;100.00;95645.19;5070727;28;20094;-75
2022/05/05 03:28:56;;;;;;;9.60;5.55;;;;;;;5.99;100.00;95645.69;5059691;28;20421;-74
2022/05/05 03:31:22;;;;;;;10.27;6.20;;;;;;;6.03;100.00;95656.44;5071095;28;20448;-75
2022/05/05 03:33:48;;;;;;;13.35;5.60;;;;;;;5.96;100.00;95651.34;5071262;28;20032;-75
2022/05/05 03:36:13;;;;;;;12.20;6.18;;;;;;;5.97;100.00;95652.94;5071472;28;20044;-75
2022/05/05 03:38:39;;;;;;;10.90;5.90;;;;;;;5.91;100.00;95651.25;5054558;28;20486;-75
2022/05/05 03:41:05;;;;;;;13.98;6.47;;;;;;;5.96;100.00;95656.56;5070928;28;20063;-75
2022/05/05 03:43:32;;;;;;;11.95;6.28;;;;;;;6.01;100.00;95654.06;5086832;28;20032;-75
2022/05/05 03:45:58;;;;;;;14.32;6.60;;;;;;;6.00;100.00;95652.47;5068849;28;20040;-75
2022/05/05 03:48:24;;;;;;;15.85;6.93;;;;;;;6.00;100.00;95655.06;5064106;28;20359;-75
2022/05/05 03:50:50;;;;;;;12.13;6.30;;;;;;;6.00;100.00;95647.25;5071304;28;20037;-75
2022/05/05 03:53:15;;;;;;;10.63;6.00;;;;;;;5.91;100.00;95646.03;5070529;28;20041;-75
2022/05/05 03:55:41;;;;;;;13.15;6.10;;;;;;;5.92;100.00;95650.22;5057584;28;20049;-75
2022/05/05 03:58:06;;;;;;;11.50;5.72;;;;;;;5.85;100.00;95654.81;5057583;28;20089;-75
2022/05/05 04:00:32;;;;;;;10.27;5.82;;;;;;;5.89;100.00;95653.31;5068172;28;20063;-75
2022/05/05 04:05:41;;;;;;;14.00;6.10;;;;;;;5.78;100.00;95649.72;5057383;28;20568;-75
2022/05/05 04:08:07;;;;;;;10.60;5.82;;;;;;;5.82;100.00;95655.25;5062350;28;20041;-75
2022/05/05 04:10:33;;;;;;;11.65;5.88;;;;;;;5.83;100.00;95654.25;5070040;28;20032;-76
2022/05/05 04:12:58;;;;;;;11.55;5.50;;;;;;;5.86;100.00;95672.06;5065979;28;20474;-76
2022/05/05 04:15:24;;;;;;;11.98;6.75;;;;;;;5.95;100.00;95665.44;5070661;28;20049;-76
2022/05/05 04:17:50;;;;;;;12.57;6.32;;;;;;;6.02;100.00;95670.50;5070402;28;20045;-75
2022/05/05 04:20:17;;;;;;;11.30;6.10;;;;;;;5.99;100.00;95666.56;5070696;28;20037;-76
2022/05/05 04:22:43;;;;;;;14.27;6.32;;;;;;;5.97;100.00;95663.38;5065775;28;20525;-76
2022/05/05 04:25:09;;;;;;;12.85;6.32;;;;;;;6.01;100.00;95664.50;5070435;28;20044;-76
2022/05/05 04:27:35;;;;;;;10.77;5.85;;;;;;;6.06;100.00;95664.59;5062548;28;20258;-76
2022/05/05 04:30:05;;;;;;;10.38;5.80;;;;;;;6.02;100.00;95660.88;5053794;28;20458;-76
2022/05/05 04:32:30;;;;;;;10.93;5.85;;;;;;;5.97;100.00;95658.16;5070171;28;20703;-76
2022/05/05 04:34:56;;;;;;;11.80;6.07;;;;;;;6.14;100.00;95668.63;5069534;28;20041;-75
2022/05/05 04:37:22;;;;;;;15.20;6.22;;;;;;;6.30;100.00;95667.06;5059351;28;20044;-75
2022/05/05 04:39:48;;;;;;;13.57;6.32;;;;;;;6.49;100.00;95664.19;5069422;28;20550;-75
2022/05/05 04:42:14;;;;;;;10.93;6.30;;;;;;;6.61;100.00;95667.53;5069760;28;20044;-75
2022/05/05 04:44:39;;;;;;;12.43;6.28;;;;;;;6.75;100.00;95668.78;5068963;28;20041;-75
2022/05/05 04:47:05;;;;;;;11.60;6.35;;;;;;;6.86;100.00;95659.22;5069381;28;20536;-75
2022/05/05 04:49:31;;;;;;;11.98;6.53;;;;;;;7.01;100.00;95671.72;5069739;28;20115;-76
2022/05/05 04:51:57;;;;;;;12.15;6.68;;;;;;;7.18;100.00;95668.25;5070433;28;20048;-75
2022/05/05 04:54:22;;;;;;;12.25;6.40;;;;;;;7.26;100.00;95673.06;5058531;28;20095;-75
2022/05/05 04:56:48;;;;;;;12.25;5.93;;;;;;;7.49;100.00;95671.25;5050780;28;20550;-75
2022/05/05 04:59:14;;;;;;;13.68;6.68;;;;;;;7.55;100.00;95670.25;5060093;28;20053;-75
2022/05/05 05:01:39;;;;;;;12.38;6.35;;;;;;;7.60;100.00;95659.81;5063261;28;20044;-75
2022/05/05 05:04:06;;;;;;;11.43;6.35;;;;;;;7.59;100.00;95668.72;5069189;28;20036;-75
2022/05/05 05:06:32;;;;;;;10.77;6.25;;;;;;;7.62;100.00;95670.84;5062163;28;20094;-75
2022/05/05 05:08:58;;;;;;;11.18;6.20;;;;;;;7.59;100.00;95676.59;5068580;28;20608;-75
2022/05/05 05:11:24;;;;;;;12.52;6.65;;;;;;;7.65;100.00;95678.22;5069843;28;20561;-75
2022/05/05 05:13:49;;;;;;;10.82;5.97;;;;;;;7.78;100.00;95677.81;5063443;28;20036;-75
2022/05/05 05:16:15;;;;;;;9.60;5.65;;;;;;;7.72;100.00;95678.81;5068470;28;20033;-75
2022/05/05 05:18:41;;;;;;;11.45;6.20;;;;;;;7.67;100.00;95673.53;5069144;28;20048;-75
2022/05/05 05:21:07;;;;;;;12.38;6.10;;;;;;;7.67;100.00;95675.34;5067111;28;20119;-75
2022/05/05 05:23:32;;;;;;;13.80;6.00;;;;;;;7.71;100.00;95682.44;5063678;28;20063;-75
2022/05/05 05:25:58;;;;;;;12.13;6.60;;;;;;;7.79;100.00;95687.25;5068836;28;20051;-74
2022/05/05 05:28:24;;;;;;;11.27;5.45;;;;;;;7.86;100.00;95676.59;5061763;28;20049;-75
2022/05/05 05:30:49;;;;;;;10.07;5.53;;;;;;;7.87;100.00;95672.13;5069371;28;20048;-75
2022/05/05 05:33:15;;;;;;;9.93;5.63;;;;;;;7.86;100.00;95675.78;5068664;28;20110;-75
2022/05/05 05:35:41;;;;;;;9.25;5.45;;;;;;;7.92;100.00;95680.06;5064194;28;20037;-75
2022/05/05 05:38:07;;;;;;;9.77;5.68;;;;;;;8.01;100.00;95678.56;5069014;28;20044;-75
2022/05/05 05:40:33;;;;;;;8.57;5.43;;;;;;;7.94;100.00;95673.53;5069294;28;20044;-75
2022/05/05 05:42:58;;;;;;;10.55;5.25;;;;;;;7.94;100.00;95677.97;5068689;28;20041;-75
2022/05/05 05:45:24;;;;;;;10.02;5.25;;;;;;;7.90;100.00;95679.50;5059413;28;20391;-76
2022/05/05 05:47:50;;;;;;;12.65;5.72;;;;;;;7.94;100.00;95683.22;5066946;28;20041;-76
2022/05/05 05:50:15;;;;;;;13.45;6.45;;;;;;;8.35;100.00;95688.00;5068511;28;20075;-76
2022/05/05 05:52:41;;;;;;;10.40;6.13;;;;;;;8.53;100.00;95692.91;5063000;28;20673;-76
2022/05/05 05:55:07;;;;;;;12.88;6.50;;;;;;;8.42;100.00;95684.16;5059269;28;20059;-77
2022/05/05 05:57:32;;;;;;;12.30;6.57;;;;;;;8.59;100.00;95693.72;5065937;28;20044;-75
2022/05/05 05:59:58;;;;;;;12.90;7.10;;;;;;;8.70;100.00;95689.34;5068847;28;20101;-77
2022/05/05 06:05:08;;;;;;;11.05;6.55;;;;;;;8.90;100.00;95696.56;5067319;28;20486;-75
2022/05/05 06:07:33;;;;;;;12.32;6.90;;;;;;;8.97;100.00;95699.75;5067948;28;20130;-75
2022/05/05 06:09:59;;;;;;;14.93;7.45;;;;;;;9.02;100.00;95689.28;5068497;28;20048;-75
2022/05/05 06:12:24;;;;;;;12.52;7.25;;;;;;;9.07;100.00;95699.81;5068556;28;20044;-75
2022/05/05 06:14:50;;;;;;;14.30;7.50;;;;;;;9.16;100.00;95700.88;5063596;28;20486;-75
2022/05/05 06:17:15;;;;;;;16.70;8.75;;;;;;;9.26;100.00;95696.75;5068716;28;20041;-75
2022/05/05 06:19:44;;;;;;;16.70;8.40;;;;;;;9.32;100.00;95695.72;5066924;28;20052;-75
2022/05/05 06:22:09;;;;;;;17.73;8.77;;;;;;;9.36;100.00;95686.28;5066629;28;20064;-76
2022/05/05 06:24:35;;;;;;;20.77;10.35;;;;;;;9.46;100.00;95696.81;5068726;28;20041;-75
2022/05/05 06:27:01;;;;;;;20.40;11.20;;;;;;;9.57;100.00;95697.66;5065524;28;20511;-75
2022/05/05 06:29:27;;;;;;;19.55;10.90;;;;;;;9.57;100.00;95691.59;5067238;28;20048;-75
2022/05/05 06:31:52;;;;;;;22.88;12.25;;;;;;;9.66;100.00;95700.59;5066972;28;20033;-75
2022/05/05 06:34:18;;;;;;;22.08;12.77;;;;;;;9.64;100.00;95695.59;5067725;28;20044;-74
2022/05/05 06:36:43;;;;;;;23.67;11.85;;;;;;;9.84;100.00;95701.94;5062803;28;20052;-75
2022/05/05 06:39:09;;;;;;;21.88;11.45;;;;;;;9.84;100.00;95694.03;5066936;28;20048;-75
2022/05/05 06:41:35;;;;;;;24.17;13.18;;;;;;;9.87;100.00;95702.22;5068354;28;20128;-75
2022/05/05 06:44:00;;;;;;;25.50;13.63;;;;;;;9.86;100.00;95698.00;5065833;28;20040;-75
2022/05/05 06:46:27;;;;;;;24.05;13.00;;;;;;;9.94;100.00;95695.91;5060020;28;20037;-76
2022/05/05 06:48:53;;;;;;;24.65;13.48;;;;;;;10.02;100.00;95703.28;5068064;28;20079;-75
2022/05/05 06:51:19;;;;;;;26.52;13.45;;;;;;;10.05;100.00;95708.03;5068073;28;20037;-74
2022/05/05 06:53:44;;;;;;;25.70;14.70;;;;;;;10.06;100.00;95709.63;5067583;28;20042;-75
2022/05/05 06:56:10;;;;;;;31.60;14.80;;;;;;;10.16;100.00;95704.38;5060352;28;20106;-74
2022/05/05 06:58:36;;;;;;;25.45;14.00;;;;;;;10.12;100.00;95708.56;5066731;28;20554;-74
2022/05/05 07:03:45;;;;;;;25.75;13.90;;;;;;;10.22;100.00;95718.31;5068686;28;20111;-76
2022/05/05 07:06:11;;;;;;;34.22;15.60;;;;;;;10.28;100.00;95716.47;5068333;28;20576;-76
2022/05/05 07:11:22;;;;;;;25.27;14.38;;;;;;;10.34;100.00;95723.34;5073125;28;20547;-75
2022/05/05 07:13:48;;;;;;;22.27;13.25;;;;;;;10.49;100.00;95728.63;5071221;28;20044;-74
2022/05/05 07:16:13;;;;;;;24.02;13.10;;;;;;;10.38;100.00;95727.81;5063093;28;20156;-75
2022/05/05 07:18:39;;;;;;;27.60;15.00;;;;;;;10.30;100.00;95724.88;5063474;28;20090;-75
2022/05/05 07:21:04;;;;;;;26.50;15.10;;;;;;;10.26;100.00;95729.88;5071148;28;20048;-74
2022/05/05 07:23:30;;;;;;;26.83;14.32;;;;;;;10.37;100.00;95728.06;5070435;28;20082;-78
2022/05/05 07:25:55;;;;;;;25.88;13.93;;;;;;;10.63;100.00;95741.25;5071812;28;20447;-76
2022/05/05 07:28:21;;;;;;;26.35;14.48;;;;;;;10.63;100.00;95743.88;5068540;28;20490;-77
2022/05/05 07:30:47;;;;;;;24.23;14.13;;;;;;;10.78;100.00;95743.88;5068511;28;20477;-76
2022/05/05 07:33:12;;;;;;;29.90;15.13;;;;;;;11.08;100.00;95750.94;5070616;28;20036;-77
2022/05/05 07:35:38;;;;;;;24.75;13.80;;;;;;;11.08;100.00;95750.16;5071772;28;20040;-78
2022/05/05 07:38:05;;;;;;;25.08;13.65;;;;;;;11.36;100.00;95748.78;5073439;28;20068;-77
2022/05/05 07:40:31;;;;;;;27.42;12.52;;;;;;;11.81;100.00;95756.81;5063962;28;20048;-76
2022/05/05 07:42:56;;;;;;;25.05;13.85;;;;;;;11.89;100.00;95753.56;5071160;28;20040;-76
2022/05/05 07:45:22;;;;;;;24.45;13.40;;;;;;;11.87;100.00;95758.34;5070867;28;20497;-75
2022/05/05 07:47:48;;;;;;;21.88;12.93;;;;;;;12.02;100.00;95759.38;5067010;28;20090;-77
2022/05/05 07:50:15;;;;;;;22.83;12.70;;;;;;;12.27;100.00;95753.94;5070191;28;20044;-75
2022/05/05 07:52:40;;;;;;;22.52;12.50;;;;;;;12.40;100.00;95746.47;5070342;28;20377;-75
2022/05/05 07:55:07;;;;;;;22.42;13.20;;;;;;;12.30;100.00;95748.09;5070878;28;20505;-75
2022/05/05 07:57:41;;;;;;;23.15;13.10;;;;;;;12.18;99.21;95760.84;5067055;28;20032;-77
2022/05/05 08:00:09;;;;;;;23.85;12.20;;;;;;;12.21;100.00;95760.31;5071019;28;20040;-76
2022/05/05 08:02:35;;;;;;;24.42;14.13;;;;;;;12.25;100.00;95750.78;5070889;28;20057;-77
2022/05/05 08:05:00;;;;;;;25.77;13.50;;;;;;;12.22;100.00;95761.88;5071079;28;20090;-77
2022/05/05 08:07:26;;;;;;;22.77;13.07;;;;;;;12.27;100.00;95758.44;5068054;28;20032;-76
2022/05/05 08:09:51;;;;;;;25.33;13.73;;;;;;;12.23;100.00;95758.19;5069116;28;20048;-76
2022/05/05 08:12:17;;;;;;;23.40;14.18;;;;;;;12.36;100.00;95756.00;5070068;28;20044;-76
2022/05/05 08:14:42;;;;;;;21.77;12.35;;;;;;;12.36;100.00;95758.66;5069482;28;20067;-75
2022/05/05 08:17:08;;;;;;;25.20;13.30;;;;;;;12.40;100.00;95757.03;5079738;28;20052;-75
2022/05/05 08:19:34;;;;;;;20.65;12.15;;;;;;;12.46;96.45;95753.28;5070411;28;21721;-75
2022/05/05 08:21:59;;;;;;;24.60;13.30;;;;;;;12.57;100.00;95752.16;5070442;28;20048;-76
2022/05/05 08:29:53;;;;;;;25.10;13.48;;;;;;;12.53;100.00;95759.06;5075843;28;20093;-76
2022/05/05 08:32:19;;;;;;;21.40;13.35;;;;;;;12.48;100.00;95764.34;5070463;28;20452;-76
2022/05/05 08:34:44;;;;;;;27.17;14.00;;;;;;;12.57;100.00;95752.16;5070298;28;20068;-76
2022/05/05 08:37:10;;;;;;;26.42;13.27;;;;;;;12.70;100.00;95761.31;5065794;28;20111;-76
2022/05/05 08:39:36;;;;;;;22.65;13.25;;;;;;;12.88;93.32;95762.47;5069399;28;20490;-76
2022/05/05 08:42:04;;;;;;;24.48;13.55;;;;;;;13.21;94.92;95765.34;5070688;28;20123;-76
2022/05/05 08:44:29;;;;;;;25.58;14.38;;;;;;;13.22;88.92;95772.19;5064539;28;20041;-76
2022/05/05 08:46:55;;;;;;;28.23;15.10;;;;;;;13.40;100.00;95772.59;5069002;28;20044;-76
2022/05/05 08:49:25;;;;;;;26.75;14.75;;;;;;;13.70;100.00;95771.44;5081035;28;20051;-76
2022/05/05 08:51:52;;;;;;;23.80;14.10;;;;;;;13.57;99.29;95772.16;5066504;28;20201;-75
2022/05/05 08:54:21;;;;;;;23.73;14.60;;;;;;;13.67;94.61;95783.38;5049803;28;20036;-76
2022/05/05 08:56:50;;;;;;;27.13;14.38;;;;;;;13.86;92.67;95785.28;5060550;28;20123;-75
2022/05/05 08:59:17;;;;;;;24.60;14.13;;;;;;;13.94;89.61;95771.44;5067976;28;20056;-76
2022/05/05 09:01:44;;;;;;;25.92;13.40;;;;;;;14.07;87.63;95774.47;5069571;28;20090;-75
2022/05/05 09:04:10;;;;;;;28.17;14.15;;;;;;;14.44;84.93;95768.38;5068458;28;20036;-75
2022/05/05 09:06:47;;;;;;;23.25;12.90;;;;;;;14.27;88.95;95768.88;5067609;28;20551;-75
2022/05/05 09:09:29;;;;;;;24.27;14.05;;;;;;;14.51;94.45;95774.09;5069423;28;20036;-75
2022/05/05 09:12:13;;;;;;;21.90;13.15;;;;;;;14.15;82.74;95779.09;5065423;28;20425;-75
2022/05/05 09:14:46;;;;;;;23.02;13.27;;;;;;;14.34;91.73;95774.59;5067085;28;20063;-71
2022/05/05 09:17:17;;;;;;;18.97;11.83;;;;;;;14.29;86.38;95773.91;5063358;28;20493;-76
2022/05/05 09:19:45;;;;;;;20.83;13.38;;;;;;;14.45;91.31;95779.75;5062563;28;20090;-76
2022/05/05 09:22:11;;;;;;;24.10;14.93;;;;;;;14.47;93.29;95780.28;5067182;28;20051;-75
2022/05/05 09:24:43;;;;;;;27.45;12.80;;;;;;;14.85;91.17;95774.94;5066005;28;20513;-75
2022/05/05 09:27:28;;;;;;;21.75;13.25;;;;;;;14.92;89.02;95770.06;5065758;28;20036;-77
2022/05/05 09:30:09;;;;;;;20.70;13.18;;;;;;;14.96;81.79;95768.41;5069445;28;20047;-75
2022/05/05 09:32:40;;;;;;;23.13;13.10;;;;;;;14.93;82.97;95769.00;5068538;28;20076;-76
2022/05/05 09:35:09;;;;;;;22.38;14.18;;;;;;;14.94;87.22;95775.88;5067643;28;20048;-75
2022/05/05 09:37:35;;;;;;;21.20;12.52;;;;;;;15.37;77.82;95762.41;5064099;28;20045;-75
2022/05/05 09:40:03;;;;;;;21.90;12.65;;;;;;;15.32;81.02;95764.34;5056917;28;20123;-77
2022/05/05 09:42:41;;;;;;;28.70;12.65;;;;;;;15.41;83.77;95766.03;5062957;28;20052;-75
2022/05/05 09:45:22;;;;;;;19.08;11.65;;;;;;;15.35;81.24;95767.19;5056554;28;20152;-75
2022/05/05 09:47:53;;;;;;;19.65;12.05;;;;;;;15.23;78.30;95772.19;5067717;28;20040;-75
2022/05/05 09:50:23;;;;;;;20.55;11.82;;;;;;;15.18;82.78;95766.97;5068561;28;20072;-77
2022/05/05 09:58:23;;;;;;;18.77;10.50;;;;;;;15.48;80.94;95767.50;5067942;28;20043;-74
2022/05/05 10:01:00;;;;;;;16.83;9.80;;;;;;;15.77;76.10;95765.34;5068049;28;20040;-75
2022/05/05 10:04:05;;;;;;;16.48;9.48;;;;;;;16.37;81.01;95771.56;5067704;28;20107;-75
2022/05/05 10:06:34;;;;;;;;;;;;;;;15.84;74.04;95774.81;5052484;28;20056;-74
2022/05/05 10:09:06;;;;;;;12.80;8.75;;;;;;;16.09;74.19;95766.31;5067716;28;19928;-76
2022/05/05 10:11:33;;;;;;;15.43;9.30;;;;;;;16.43;80.73;95765.06;5067892;28;20044;-74
2022/05/05 10:14:00;;;;;;;15.82;10.73;;;;;;;16.28;73.62;95773.38;5068643;28;20048;-77
2022/05/05 10:16:27;;;;;;;17.50;8.73;;;;;;;16.11;71.04;95764.13;5066604;28;20044;-77
2022/05/05 10:18:52;;;;;;;14.95;9.45;;;;;;;15.95;75.96;95760.25;5064727;28;20521;-75
2022/05/05 10:21:28;;;;;;;18.98;8.88;;;;;;;16.30;76.34;95759.78;5068400;28;20048;-76
2022/05/05 10:23:58;;;;;;;12.38;8.55;;;;;;;16.79;71.79;95753.59;5074705;28;20530;-76
2022/05/05 10:26:25;;;;;;;24.33;9.63;;;;;;;16.71;70.90;95749.00;5067777;28;20040;-76
2022/05/05 10:28:51;;;;;;;26.55;9.98;;;;;;;16.77;66.41;95745.13;5065965;28;20037;-74
2022/05/05 10:31:33;;;;;;;17.95;9.80;;;;;;;18.02;66.07;95743.50;5067428;28;20056;-74
2022/05/05 10:34:08;;;;;;;17.15;9.75;;;;;;;18.47;71.33;95740.53;5061612;28;20048;-75
2022/05/05 10:36:36;;;;;;;17.73;9.02;;;;;;;18.85;62.75;95739.88;5066777;28;20052;-76
2022/05/05 10:39:23;;;;;;;14.15;8.88;;;;;;;18.59;66.56;95739.13;5073399;28;20056;-75
2022/05/05 10:41:52;;;;;;;12.88;8.27;;;;;;;18.39;65.28;95744.00;5068040;28;20048;-75
2022/05/05 10:44:18;;;;;;;17.15;9.35;;;;;;;17.96;63.55;95742.09;5071721;28;20391;-74
2022/05/05 10:47:02;;;;;;;16.48;9.68;;;;;;;18.67;71.29;95744.44;5072234;28;20055;-75
2022/05/05 10:49:37;;;;;;;14.90;9.27;;;;;;;18.53;73.38;95739.28;5072701;28;20070;-74
2022/05/05 10:52:09;;;;;;;16.30;8.90;;;;;;;19.54;56.57;95743.47;5071974;28;20174;-74
2022/05/05 10:54:36;;;;;;;16.58;9.20;;;;;;;19.04;55.67;95738.78;5071598;28;20106;-76
2022/05/05 10:57:26;;;;;;;17.55;8.57;;;;;;;19.53;56.45;95731.22;5070128;28;20037;-75
2022/05/05 11:00:15;;;;;;;16.67;9.10;;;;;;;19.78;52.59;95725.28;5071469;28;20513;-76
2022/05/05 11:02:58;;;;;;;14.85;8.93;;;;;;;19.63;52.25;95726.63;5057487;28;20040;-75
2022/05/05 11:05:27;;;;;;;13.93;9.15;;;;;;;19.88;51.99;95720.41;5070133;28;20106;-75
2022/05/05 11:08:19;;;;;;;16.33;8.85;;;;;;;20.21;53.79;95727.72;5065890;28;20036;-76
2022/05/05 11:13:44;;;;;;;13.68;8.55;;;;;;;20.39;51.00;95711.53;5047911;28;20064;-75
2022/05/05 11:22:13;;;;;;;16.13;9.05;;;;;;;19.54;53.35;95706.09;5071157;28;20052;-76
2022/05/05 11:24:45;;;;;;;;;;;;;;;19.18;55.15;95706.56;5068627;28;20044;-75
2022/05/05 11:27:19;;;;;;;17.05;9.95;;;;;;;18.41;58.78;95699.16;5066047;28;19921;-76
2022/05/05 11:29:50;;;;;;;29.63;16.98;;;;;;;18.33;60.78;95697.28;5067724;28;20414;-76
2022/05/05 11:32:16;;;;;;;21.55;12.63;;;;;;;18.03;62.62;95705.13;5071206;28;20087;-77
2022/05/05 11:34:41;;;;;;;14.48;10.07;;;;;;;18.46;62.88;95696.34;5069664;28;20157;-75
2022/05/05 11:37:08;;;;;;;16.33;10.43;;;;;;;18.44;60.36;95698.53;5070205;28;20044;-74
2022/05/05 11:39:35;;;;;;;16.30;9.95;;;;;;;18.18;59.57;95696.66;5064403;28;20508;-73
2022/05/05 11:42:04;;;;;;;15.20;9.65;;;;;;;17.66;65.23;95696.59;5052808;28;20045;-76
2022/05/05 11:44:30;;;;;;;14.30;9.75;;;;;;;17.72;64.82;95695.34;5050798;28;20036;-76
2022/05/05 11:47:00;;;;;;;19.33;9.80;;;;;;;17.76;67.12;95687.53;5054034;28;20620;-75
2022/05/05 11:49:32;;;;;;;17.05;9.80;;;;;;;17.52;61.51;95683.41;5055841;28;20418;-75
2022/05/05 11:52:02;;;;;;;16.85;10.05;;;;;;;17.12;60.46;95684.22;5053844;28;20033;-76
2022/05/05 11:54:31;;;;;;;18.95;10.10;;;;;;;17.13;62.29;95675.13;5057469;28;20037;-75
2022/05/05 11:56:56;;;;;;;16.98;10.23;;;;;;;17.14;60.90;95676.72;5068630;28;20844;-77
2022/05/05 12:02:15;;;;;;;14.65;9.77;;;;;;;18.80;60.12;95668.06;5069083;28;20491;-76
2022/05/05 12:04:58;;;;;;;20.02;9.85;;;;;;;19.05;57.07;95652.34;5065094;28;20380;-73
2022/05/05 12:07:25;;;;;;;18.27;9.93;;;;;;;19.46;55.03;95661.53;5065610;28;20040;-74